createdAt,value
2019-03-02T00:00:56.747Z,0
2019-03-02T00:01:57.613Z,0
2019-03-02T00:03:01.577Z,0
2019-03-02T00:03:55.724Z,0
2019-03-02T00:04:58.606Z,0
2019-03-02T00:05:56.880Z,0
2019-03-02T00:06:55.726Z,0
2019-03-02T00:07:56.691Z,0
2019-03-02T00:09:01.961Z,0
2019-03-02T00:09:55.873Z,0
2019-03-02T00:10:55.665Z,0
2019-03-02T00:11:59.013Z,0
2019-03-02T00:12:55.671Z,0
2019-03-02T00:13:55.405Z,0
2019-03-02T00:14:58.727Z,0
2019-03-02T00:15:55.865Z,0
2019-03-02T00:16:55.378Z,0
2019-03-02T00:18:00.004Z,0
2019-03-02T00:18:55.847Z,0
2019-03-02T00:19:55.630Z,0
2019-03-02T00:21:02.442Z,0
2019-03-02T00:21:55.125Z,0
2019-03-02T00:22:54.949Z,0
2019-03-02T00:23:59.043Z,0
2019-03-02T00:25:00.396Z,0
2019-03-02T00:25:55.565Z,0
2019-03-02T00:26:56.219Z,0
2019-03-02T00:28:00.790Z,0
2019-03-02T00:28:55.530Z,0
2019-03-02T00:29:55.600Z,0
2019-03-02T00:30:57.762Z,0
2019-03-02T00:31:55.802Z,0
2019-03-02T00:32:55.011Z,0
2019-03-02T00:33:59.839Z,0
2019-03-02T00:34:54.766Z,0
2019-03-02T00:35:55.259Z,0
2019-03-02T00:37:00.982Z,0
2019-03-02T00:37:55.244Z,0
2019-03-02T00:38:55.765Z,0
2019-03-02T00:40:01.079Z,0
2019-03-02T00:40:54.981Z,0
2019-03-02T00:41:55.216Z,0
2019-03-02T00:42:59.829Z,0
2019-03-02T00:43:55.218Z,0
2019-03-02T00:44:55.449Z,0
2019-03-02T00:45:59.819Z,0
2019-03-02T00:46:56.264Z,0
2019-03-02T00:47:55.174Z,0
2019-03-02T00:48:56.283Z,0
2019-03-02T00:49:57.084Z,0
2019-03-02T00:50:55.403Z,0
2019-03-02T00:51:56.897Z,0
2019-03-02T00:52:59.096Z,0
2019-03-02T00:53:55.657Z,0
2019-03-02T00:55:07.006Z,0
2019-03-02T00:55:55.188Z,0
2019-03-02T00:56:55.611Z,0
2019-03-02T00:58:00.279Z,0
2019-03-02T00:58:55.373Z,0
2019-03-02T00:59:55.351Z,0
2019-03-02T01:00:58.312Z,0
2019-03-02T01:01:55.126Z,0
2019-03-02T01:02:55.109Z,0
2019-03-02T01:03:58.284Z,0
2019-03-02T01:04:57.766Z,0
2019-03-02T01:05:55.348Z,0
2019-03-02T01:06:58.028Z,0
2019-03-02T01:07:59.682Z,0
2019-03-02T01:08:55.293Z,0
2019-03-02T01:09:55.850Z,0
2019-03-02T01:10:58.100Z,0
2019-03-02T01:11:55.045Z,0
2019-03-02T01:12:55.035Z,0
2019-03-02T01:13:56.809Z,0
2019-03-02T01:14:55.273Z,0
2019-03-02T01:15:55.521Z,0
2019-03-02T01:17:00.030Z,0
2019-03-02T01:17:54.982Z,0
2019-03-02T01:18:54.980Z,0
2019-03-02T01:20:01.037Z,0
2019-03-02T01:20:54.982Z,0
2019-03-02T01:21:54.977Z,0
2019-03-02T01:22:58.926Z,0
2019-03-02T01:23:54.984Z,0
2019-03-02T01:24:55.445Z,0
2019-03-02T01:25:57.949Z,0
2019-03-02T01:26:59.380Z,0
2019-03-02T01:27:55.189Z,0
2019-03-02T01:28:54.673Z,0
2019-03-02T01:29:59.265Z,0
2019-03-02T01:30:56.314Z,0
2019-03-02T01:31:55.145Z,0
2019-03-02T01:33:01.475Z,0
2019-03-02T01:33:55.388Z,0
2019-03-02T01:34:54.898Z,0
2019-03-02T01:35:59.153Z,0
2019-03-02T01:36:55.171Z,0
2019-03-02T01:37:54.897Z,0
2019-03-02T01:38:58.858Z,0
2019-03-02T01:39:54.868Z,0
2019-03-02T01:40:55.106Z,0
2019-03-02T01:42:00.042Z,0
2019-03-02T01:42:54.857Z,0
2019-03-02T01:43:54.822Z,0
2019-03-02T01:44:58.385Z,0
2019-03-02T01:45:55.113Z,0
2019-03-02T01:46:55.113Z,0
2019-03-02T01:47:59.865Z,0
2019-03-02T01:48:54.599Z,0
2019-03-02T01:49:54.567Z,0
2019-03-02T01:50:56.750Z,0
2019-03-02T01:51:58.152Z,0
2019-03-02T01:52:54.790Z,0
2019-03-02T01:53:56.157Z,0
2019-03-02T01:54:58.106Z,0
2019-03-02T01:55:55.255Z,0
2019-03-02T01:56:55.019Z,0
2019-03-02T01:57:59.120Z,0
2019-03-02T01:58:54.798Z,0
2019-03-02T01:59:55.053Z,0
2019-03-02T02:00:58.247Z,0
2019-03-02T02:01:56.480Z,0
2019-03-02T02:02:54.690Z,0
2019-03-02T02:03:56.768Z,0
2019-03-02T02:04:57.433Z,0
2019-03-02T02:05:54.950Z,0
2019-03-02T02:06:55.183Z,0
2019-03-02T02:08:00.497Z,0
2019-03-02T02:08:54.918Z,0
2019-03-02T02:09:54.973Z,0
2019-03-02T02:10:54.911Z,0
2019-03-02T02:11:59.545Z,0
2019-03-02T02:12:54.699Z,0
2019-03-02T02:13:54.411Z,0
2019-03-02T02:14:58.891Z,0
2019-03-02T02:15:54.881Z,0
2019-03-02T02:16:54.634Z,0
2019-03-02T02:17:57.357Z,0
2019-03-02T02:18:54.612Z,0
2019-03-02T02:19:54.368Z,0
2019-03-02T02:20:57.398Z,0
2019-03-02T02:21:54.619Z,0
2019-03-02T02:22:54.703Z,0
2019-03-02T02:23:58.902Z,0
2019-03-02T02:24:56.734Z,0
2019-03-02T02:25:54.576Z,0
2019-03-02T02:26:56.476Z,0
2019-03-02T02:27:57.796Z,0
2019-03-02T02:28:55.091Z,0
2019-03-02T02:29:54.311Z,0
2019-03-02T02:30:55.088Z,0
2019-03-02T02:31:55.896Z,0
2019-03-02T02:33:02.524Z,0
2019-03-02T02:33:55.052Z,0
2019-03-02T02:35:02.757Z,0
2019-03-02T02:35:54.523Z,0
2019-03-02T02:37:02.627Z,0
2019-03-02T02:37:54.779Z,0
2019-03-02T02:39:03.454Z,0
2019-03-02T02:39:54.738Z,0
2019-03-02T02:40:55.056Z,0
2019-03-02T02:41:54.793Z,0
2019-03-02T02:42:54.785Z,0
2019-03-02T02:44:03.086Z,0
2019-03-02T02:44:54.975Z,0
2019-03-02T02:46:02.662Z,0
2019-03-02T02:46:54.956Z,0
2019-03-02T02:48:01.402Z,0
2019-03-02T02:48:54.692Z,0
2019-03-02T02:49:58.669Z,0
2019-03-02T02:50:54.963Z,0
2019-03-02T02:51:59.029Z,0
2019-03-02T02:52:54.917Z,0
2019-03-02T02:53:56.098Z,0
2019-03-02T02:55:04.325Z,0
2019-03-02T02:55:54.645Z,0
2019-03-02T02:57:01.405Z,0
2019-03-02T02:57:54.642Z,0
2019-03-02T02:59:06.356Z,0
2019-03-02T02:59:54.454Z,0
2019-03-02T03:01:03.861Z,0
2019-03-02T03:01:54.854Z,0
2019-03-02T03:02:54.395Z,0
2019-03-02T03:04:01.142Z,0
2019-03-02T03:04:54.672Z,0
2019-03-02T03:06:02.415Z,0
2019-03-02T03:06:54.817Z,0
2019-03-02T03:08:03.168Z,0
2019-03-02T03:08:54.628Z,0
2019-03-02T03:09:58.821Z,0
2019-03-02T03:10:54.830Z,0
2019-03-02T03:11:54.859Z,0
2019-03-02T03:12:56.649Z,0
2019-03-02T03:13:54.283Z,0
2019-03-02T03:15:01.034Z,0
2019-03-02T03:15:54.539Z,0
2019-03-02T03:16:58.956Z,0
2019-03-02T03:17:54.256Z,0
2019-03-02T03:18:59.304Z,0
2019-03-02T03:19:54.494Z,0
2019-03-02T03:20:59.010Z,0
2019-03-02T03:21:54.467Z,0
2019-03-02T03:22:55.913Z,0
2019-03-02T03:24:02.732Z,0
2019-03-02T03:24:54.726Z,0
2019-03-02T03:26:03.414Z,0
2019-03-02T03:26:54.718Z,0
2019-03-02T03:27:59.298Z,0
2019-03-02T03:28:54.025Z,0
2019-03-02T03:29:58.665Z,0
2019-03-02T03:30:54.467Z,0
2019-03-02T03:32:07.500Z,0
2019-03-02T03:33:06.829Z,0
2019-03-02T03:33:56.726Z,0
2019-03-02T03:34:54.439Z,0
2019-03-02T03:36:00.776Z,0
2019-03-02T03:36:54.660Z,0
2019-03-02T03:38:00.171Z,0
2019-03-02T03:38:54.612Z,0
2019-03-02T03:39:55.589Z,0
2019-03-02T03:40:54.099Z,0
2019-03-02T03:41:54.403Z,0
2019-03-02T03:43:01.941Z,0
2019-03-02T03:43:54.359Z,0
2019-03-02T03:44:54.573Z,0
2019-03-02T03:45:54.185Z,0
2019-03-02T03:47:00.595Z,0
2019-03-02T03:47:54.607Z,0
2019-03-02T03:49:02.896Z,0
2019-03-02T03:49:53.837Z,0
2019-03-02T03:50:59.857Z,0
2019-03-02T03:51:54.552Z,0
2019-03-02T03:52:58.695Z,0
2019-03-02T03:53:54.596Z,0
2019-03-02T03:54:55.411Z,0
2019-03-02T03:55:54.015Z,0
2019-03-02T03:56:54.279Z,0
2019-03-02T03:58:02.542Z,0
2019-03-02T03:58:54.280Z,0
2019-03-02T04:00:03.275Z,0
2019-03-02T04:00:54.228Z,0
2019-03-02T04:02:01.797Z,0
2019-03-02T04:02:54.566Z,0
2019-03-02T04:04:00.341Z,0
2019-03-02T04:04:54.208Z,0
2019-03-02T04:05:56.528Z,0
2019-03-02T04:06:54.457Z,0
2019-03-02T04:07:59.413Z,0
2019-03-02T04:08:54.454Z,0
2019-03-02T04:09:56.232Z,0
2019-03-02T04:10:54.436Z,0
2019-03-02T04:11:54.414Z,0
2019-03-02T04:12:56.588Z,0
2019-03-02T04:13:56.191Z,0
2019-03-02T04:14:56.780Z,0
2019-03-02T04:15:55.409Z,0
2019-03-02T04:17:00.456Z,0
2019-03-02T04:17:54.379Z,0
2019-03-02T04:19:02.938Z,0
2019-03-02T04:19:54.378Z,0
2019-03-02T04:20:58.358Z,0
2019-03-02T04:21:54.114Z,0
2019-03-02T04:22:55.078Z,0
2019-03-02T04:24:03.340Z,0
2019-03-02T04:24:54.188Z,0
2019-03-02T04:25:59.108Z,0
2019-03-02T04:26:54.316Z,0
2019-03-02T04:28:02.963Z,0
2019-03-02T04:28:54.321Z,0
2019-03-02T04:30:02.284Z,0
2019-03-02T04:30:54.062Z,0
2019-03-02T04:31:59.506Z,0
2019-03-02T04:32:54.035Z,0
2019-03-02T04:33:54.276Z,0
2019-03-02T04:34:57.667Z,0
2019-03-02T04:35:54.025Z,0
2019-03-02T04:36:57.115Z,0
2019-03-02T04:37:56.414Z,0
2019-03-02T04:38:53.778Z,0
2019-03-02T04:39:57.569Z,0
2019-03-02T04:40:53.747Z,0
2019-03-02T04:41:53.744Z,0
2019-03-02T04:42:57.326Z,0
2019-03-02T04:43:56.402Z,0
2019-03-02T04:44:53.462Z,0
2019-03-02T04:45:53.952Z,0
2019-03-02T04:46:58.631Z,0
2019-03-02T04:47:54.551Z,0
2019-03-02T04:48:53.911Z,0
2019-03-02T04:49:58.158Z,0
2019-03-02T04:50:54.165Z,0
2019-03-02T04:51:53.658Z,0
2019-03-02T04:52:57.031Z,0
2019-03-02T04:53:54.123Z,0
2019-03-02T04:54:53.907Z,0
2019-03-02T04:55:55.708Z,0
2019-03-02T04:56:55.516Z,0
2019-03-02T04:57:54.135Z,0
2019-03-02T04:58:56.572Z,0
2019-03-02T04:59:56.609Z,0
2019-03-02T05:00:53.861Z,0
2019-03-02T05:01:55.527Z,0
2019-03-02T05:02:57.790Z,0
2019-03-02T05:03:57.166Z,0
2019-03-02T05:04:54.094Z,0
2019-03-02T05:05:53.883Z,0
2019-03-02T05:06:57.016Z,0
2019-03-02T05:07:53.576Z,0
2019-03-02T05:08:54.067Z,0
2019-03-02T05:09:57.044Z,0
2019-03-02T05:10:53.800Z,0
2019-03-02T05:11:53.788Z,0
2019-03-02T05:12:57.953Z,0
2019-03-02T05:13:53.267Z,0
2019-03-02T05:14:53.505Z,0
2019-03-02T05:15:57.159Z,0
2019-03-02T05:16:54.001Z,0
2019-03-02T05:17:53.796Z,0
2019-03-02T05:18:58.327Z,0
2019-03-02T05:19:53.482Z,0
2019-03-02T05:20:53.496Z,0
2019-03-02T05:21:53.743Z,0
2019-03-02T05:22:57.346Z,0
2019-03-02T05:23:53.721Z,0
2019-03-02T05:24:53.711Z,0
2019-03-02T05:25:57.033Z,0
2019-03-02T05:26:56.719Z,0
2019-03-02T05:27:53.452Z,0
2019-03-02T05:28:53.674Z,0
2019-03-02T05:29:56.653Z,0
2019-03-02T05:30:53.434Z,0
2019-03-02T05:31:53.675Z,0
2019-03-02T05:32:58.561Z,0
2019-03-02T05:33:53.920Z,0
2019-03-02T05:34:53.903Z,0
2019-03-02T05:35:58.608Z,0
2019-03-02T05:36:53.424Z,0
2019-03-02T05:37:53.641Z,0
2019-03-02T05:38:53.781Z,0
2019-03-02T05:39:58.193Z,0
2019-03-02T05:40:52.847Z,0
2019-03-02T05:41:55.392Z,0
2019-03-02T05:42:59.491Z,0
2019-03-02T05:43:53.609Z,0
2019-03-02T05:44:53.572Z,0
2019-03-02T05:45:53.573Z,0
2019-03-02T05:46:53.597Z,0
2019-03-02T05:47:53.821Z,0
2019-03-02T05:48:53.902Z,0
2019-03-02T05:49:57.262Z,0
2019-03-02T05:50:53.301Z,0
2019-03-02T05:51:53.551Z,0
2019-03-02T05:52:56.760Z,0
2019-03-02T05:53:53.521Z,0
2019-03-02T05:54:53.761Z,0
2019-03-02T05:55:56.314Z,0
2019-03-02T05:56:54.073Z,0
2019-03-02T05:57:53.487Z,0
2019-03-02T05:58:55.959Z,0
2019-03-02T05:59:53.492Z,0
2019-03-02T06:00:53.218Z,0
2019-03-02T06:01:53.540Z,0
2019-03-02T06:02:53.557Z,0
2019-03-02T06:03:55.686Z,0
2019-03-02T06:04:59.562Z,0
2019-03-02T06:05:53.548Z,0
2019-03-02T06:06:56.625Z,0
2019-03-02T06:07:57.298Z,0
2019-03-02T06:08:52.935Z,0
2019-03-02T06:09:57.369Z,0
2019-03-02T06:10:53.169Z,0
2019-03-02T06:11:53.191Z,0
2019-03-02T06:12:56.574Z,0
2019-03-02T06:13:53.404Z,0
2019-03-02T06:14:52.889Z,0
2019-03-02T06:15:55.773Z,0
2019-03-02T06:16:57.317Z,0
2019-03-02T06:17:53.644Z,0
2019-03-02T06:18:54.757Z,0
2019-03-02T06:19:55.710Z,0
2019-03-02T06:20:53.980Z,0
2019-03-02T06:21:55.651Z,0
2019-03-02T06:22:55.446Z,0
2019-03-02T06:23:53.324Z,0
2019-03-02T06:24:53.321Z,0
2019-03-02T06:25:58.778Z,0
2019-03-02T06:26:53.072Z,0
2019-03-02T06:27:56.374Z,5
2019-03-02T06:28:54.519Z,5
2019-03-02T06:29:53.542Z,5
2019-03-02T06:30:54.266Z,5
2019-03-02T06:31:56.498Z,5
2019-03-02T06:32:53.266Z,5
2019-03-02T06:33:54.789Z,5
2019-03-02T06:35:00.227Z,5
2019-03-02T06:35:53.254Z,5
2019-03-02T06:36:53.794Z,5
2019-03-02T06:37:56.392Z,5
2019-03-02T06:38:53.015Z,5
2019-03-02T06:39:53.576Z,5
2019-03-02T06:40:54.807Z,10
2019-03-02T06:41:52.956Z,10
2019-03-02T06:42:56.461Z,10
2019-03-02T06:43:55.009Z,10
2019-03-02T06:44:53.436Z,10
2019-03-02T06:45:53.664Z,10
2019-03-02T06:46:54.646Z,10
2019-03-02T06:47:54.835Z,10
2019-03-02T06:48:53.744Z,10
2019-03-02T06:49:58.996Z,10
2019-03-02T06:50:52.406Z,15
2019-03-02T06:51:56.741Z,15
2019-03-02T06:52:53.175Z,15
2019-03-02T06:53:52.668Z,15
2019-03-02T06:54:55.993Z,15
2019-03-02T06:55:52.890Z,15
2019-03-02T06:57:02.272Z,15
2019-03-02T06:57:58.569Z,15
2019-03-02T06:58:53.106Z,10
2019-03-02T06:59:53.106Z,10
2019-03-02T07:00:55.802Z,10
2019-03-02T07:01:56.514Z,10
2019-03-02T07:02:53.092Z,10
2019-03-02T07:03:56.025Z,15
2019-03-02T07:04:55.004Z,15
2019-03-02T07:05:53.060Z,15
2019-03-02T07:06:56.235Z,15
2019-03-02T07:07:57.275Z,15
2019-03-02T07:08:52.797Z,15
2019-03-02T07:09:54.373Z,15
2019-03-02T07:10:54.460Z,15
2019-03-02T07:11:53.318Z,15
2019-03-02T07:12:55.430Z,15
2019-03-02T07:13:58.513Z,15
2019-03-02T07:14:54.322Z,15
2019-03-02T07:15:54.520Z,15
2019-03-02T07:16:58.486Z,15
2019-03-02T07:17:53.238Z,15
2019-03-02T07:18:52.525Z,15
2019-03-02T07:19:56.580Z,15
2019-03-02T07:20:52.743Z,15
2019-03-02T07:21:53.202Z,15
2019-03-02T07:22:57.140Z,15
2019-03-02T07:23:53.206Z,20
2019-03-02T07:24:52.474Z,20
2019-03-02T07:25:53.862Z,20
2019-03-02T07:26:56.792Z,20
2019-03-02T07:27:52.683Z,20
2019-03-02T07:28:52.693Z,20
2019-03-02T07:29:56.081Z,20
2019-03-02T07:30:52.915Z,20
2019-03-02T07:31:52.690Z,25
2019-03-02T07:32:54.696Z,25
2019-03-02T07:33:53.126Z,25
2019-03-02T07:34:53.830Z,25
2019-03-02T07:35:58.082Z,25
2019-03-02T07:36:52.654Z,30
2019-03-02T07:37:54.250Z,30
2019-03-02T07:38:56.534Z,35
2019-03-02T07:39:52.937Z,35
2019-03-02T07:40:54.904Z,35
2019-03-02T07:41:57.856Z,30
2019-03-02T07:42:52.610Z,30
2019-03-02T07:43:55.376Z,30
2019-03-02T07:44:54.863Z,30
2019-03-02T07:45:52.558Z,30
2019-03-02T07:46:55.242Z,30
2019-03-02T07:47:55.910Z,30
2019-03-02T07:48:53.058Z,30
2019-03-02T07:49:56.598Z,35
2019-03-02T07:50:52.784Z,35
2019-03-02T07:51:53.014Z,40
2019-03-02T07:52:55.575Z,45
2019-03-02T07:53:52.772Z,50
2019-03-02T07:55:03.747Z,50
2019-03-02T07:55:57.326Z,50
2019-03-02T07:56:52.740Z,50
2019-03-02T07:57:53.182Z,55
2019-03-02T07:58:54.859Z,55
2019-03-02T07:59:52.734Z,50
2019-03-02T08:00:52.992Z,50
2019-03-02T08:01:57.512Z,55
2019-03-02T08:02:52.728Z,55
2019-03-02T08:03:52.211Z,55
2019-03-02T08:04:52.469Z,60
2019-03-02T08:05:57.984Z,60
2019-03-02T08:06:52.447Z,60
2019-03-02T08:07:52.707Z,65
2019-03-02T08:08:56.547Z,65
2019-03-02T08:09:52.428Z,65
2019-03-02T08:10:52.174Z,65
2019-03-02T08:11:56.007Z,65
2019-03-02T08:12:52.657Z,65
2019-03-02T08:13:52.408Z,65
2019-03-02T08:14:54.872Z,65
2019-03-02T08:15:56.357Z,65
2019-03-02T08:16:52.685Z,65
2019-03-02T08:17:55.836Z,65
2019-03-02T08:18:52.630Z,70
2019-03-02T08:19:55.501Z,70
2019-03-02T08:20:53.816Z,70
2019-03-02T08:21:52.111Z,65
2019-03-02T08:22:55.866Z,65
2019-03-02T08:23:52.611Z,65
2019-03-02T08:24:52.927Z,65
2019-03-02T08:25:52.074Z,65
2019-03-02T08:26:52.397Z,70
2019-03-02T08:27:53.953Z,70
2019-03-02T08:28:55.794Z,70
2019-03-02T08:29:53.782Z,70
2019-03-02T08:30:52.556Z,65
2019-03-02T08:31:55.266Z,65
2019-03-02T08:32:53.878Z,65
2019-03-02T08:33:55.657Z,70
2019-03-02T08:34:55.658Z,70
2019-03-02T08:35:52.840Z,75
2019-03-02T08:36:56.750Z,75
2019-03-02T08:37:52.505Z,80
2019-03-02T08:38:52.248Z,80
2019-03-02T08:39:56.063Z,80
2019-03-02T08:40:56.194Z,85
2019-03-02T08:41:53.097Z,85
2019-03-02T08:42:52.722Z,85
2019-03-02T08:43:52.506Z,85
2019-03-02T08:44:56.296Z,85
2019-03-02T08:45:52.197Z,85
2019-03-02T08:46:51.959Z,85
2019-03-02T08:47:51.977Z,85
2019-03-02T08:48:52.189Z,85
2019-03-02T08:49:52.458Z,85
2019-03-02T08:50:55.613Z,85
2019-03-02T08:51:52.698Z,85
2019-03-02T08:52:51.927Z,85
2019-03-02T08:53:51.918Z,85
2019-03-02T08:54:53.509Z,90
2019-03-02T08:55:52.390Z,95
2019-03-02T08:56:54.647Z,105
2019-03-02T08:57:53.781Z,100
2019-03-02T08:58:51.887Z,95
2019-03-02T08:59:52.637Z,105
2019-03-02T09:00:54.037Z,105
2019-03-02T09:01:58.144Z,115
2019-03-02T09:02:54.949Z,120
2019-03-02T09:03:52.110Z,125
2019-03-02T09:04:55.385Z,125
2019-03-02T09:06:11.247Z,130
2019-03-02T09:06:52.328Z,135
2019-03-02T09:07:52.877Z,140
2019-03-02T09:08:52.576Z,140
2019-03-02T09:09:52.334Z,145
2019-03-02T09:10:56.569Z,145
2019-03-02T09:11:55.782Z,150
2019-03-02T09:12:57.898Z,150
2019-03-02T09:13:52.585Z,160
2019-03-02T09:14:56.235Z,160
2019-03-02T09:15:52.528Z,155
2019-03-02T09:16:52.036Z,155
2019-03-02T09:17:58.017Z,155
2019-03-02T09:18:54.879Z,150
2019-03-02T09:19:55.651Z,155
2019-03-02T09:20:52.277Z,150
2019-03-02T09:21:55.662Z,155
2019-03-02T09:22:56.235Z,150
2019-03-02T09:23:54.214Z,150
2019-03-02T09:24:59.235Z,150
2019-03-02T09:25:52.011Z,150
2019-03-02T09:26:51.994Z,145
2019-03-02T09:27:52.226Z,145
2019-03-02T09:28:56.007Z,145
2019-03-02T09:29:55.710Z,145
2019-03-02T09:30:52.214Z,145
2019-03-02T09:31:53.292Z,145
2019-03-02T09:32:55.856Z,150
2019-03-02T09:33:52.460Z,155
2019-03-02T09:34:54.280Z,160
2019-03-02T09:35:57.423Z,165
2019-03-02T09:36:52.634Z,165
2019-03-02T09:37:52.978Z,170
2019-03-02T09:38:54.110Z,170
2019-03-02T09:39:52.160Z,175
2019-03-02T09:40:56.157Z,180
2019-03-02T09:41:54.350Z,180
2019-03-02T09:42:51.915Z,185
2019-03-02T09:43:54.838Z,195
2019-03-02T09:44:52.490Z,195
2019-03-02T09:45:55.172Z,195
2019-03-02T09:46:52.179Z,200
2019-03-02T09:47:56.890Z,205
2019-03-02T09:48:51.905Z,210
2019-03-02T09:49:52.388Z,210
2019-03-02T09:50:51.878Z,215
2019-03-02T09:51:56.865Z,215
2019-03-02T09:52:52.423Z,215
2019-03-02T09:53:52.513Z,220
2019-03-02T09:54:51.869Z,220
2019-03-02T09:55:56.176Z,215
2019-03-02T09:56:52.361Z,215
2019-03-02T09:57:56.687Z,215
2019-03-02T09:58:52.119Z,210
2019-03-02T09:59:55.538Z,205
2019-03-02T10:00:51.854Z,200
2019-03-02T10:01:53.149Z,195
2019-03-02T10:02:56.080Z,190
2019-03-02T10:03:52.144Z,185
2019-03-02T10:04:52.061Z,180
2019-03-02T10:05:55.928Z,180
2019-03-02T10:06:52.881Z,185
2019-03-02T10:07:51.856Z,185
2019-03-02T10:08:55.947Z,190
2019-03-02T10:09:51.855Z,190
2019-03-02T10:10:51.795Z,195
2019-03-02T10:11:51.819Z,195
2019-03-02T10:12:56.570Z,195
2019-03-02T10:13:53.582Z,195
2019-03-02T10:14:52.026Z,195
2019-03-02T10:15:51.796Z,195
2019-03-02T10:16:51.549Z,190
2019-03-02T10:17:52.042Z,185
2019-03-02T10:18:57.094Z,180
2019-03-02T10:19:51.778Z,175
2019-03-02T10:20:52.937Z,170
2019-03-02T10:21:56.088Z,170
2019-03-02T10:22:52.023Z,165
2019-03-02T10:23:52.467Z,160
2019-03-02T10:24:55.732Z,155
2019-03-02T10:25:52.230Z,155
2019-03-02T10:26:53.259Z,160
2019-03-02T10:27:57.343Z,160
2019-03-02T10:28:51.727Z,165
2019-03-02T10:29:55.201Z,170
2019-03-02T10:30:51.960Z,165
2019-03-02T10:31:53.769Z,155
2019-03-02T10:32:55.517Z,150
2019-03-02T10:33:51.955Z,140
2019-03-02T10:34:52.251Z,135
2019-03-02T10:35:55.791Z,135
2019-03-02T10:36:51.953Z,145
2019-03-02T10:37:52.698Z,150
2019-03-02T10:38:55.673Z,155
2019-03-02T10:39:51.684Z,155
2019-03-02T10:40:54.111Z,150
2019-03-02T10:41:56.687Z,155
2019-03-02T10:42:51.701Z,155
2019-03-02T10:43:54.119Z,155
2019-03-02T10:44:53.598Z,155
2019-03-02T10:45:51.987Z,160
2019-03-02T10:46:52.179Z,165
2019-03-02T10:47:53.908Z,165
2019-03-02T10:48:52.160Z,165
2019-03-02T10:49:57.279Z,160
2019-03-02T10:50:55.825Z,155
2019-03-02T10:51:51.762Z,150
2019-03-02T10:52:56.222Z,145
2019-03-02T10:53:51.915Z,140
2019-03-02T10:54:51.647Z,140
2019-03-02T10:55:57.006Z,140
2019-03-02T10:56:52.128Z,140
2019-03-02T10:57:51.368Z,145
2019-03-02T10:58:52.927Z,150
2019-03-02T10:59:56.155Z,150
2019-03-02T11:00:51.386Z,150
2019-03-02T11:01:52.819Z,150
2019-03-02T11:02:55.951Z,150
2019-03-02T11:03:52.109Z,150
2019-03-02T11:04:53.753Z,150
2019-03-02T11:05:56.753Z,145
2019-03-02T11:06:51.895Z,145
2019-03-02T11:07:57.499Z,145
2019-03-02T11:08:52.089Z,145
2019-03-02T11:09:52.060Z,145
2019-03-02T11:10:54.864Z,140
2019-03-02T11:11:52.074Z,140
2019-03-02T11:12:52.915Z,140
2019-03-02T11:13:55.232Z,140
2019-03-02T11:14:52.048Z,140
2019-03-02T11:15:54.746Z,140
2019-03-02T11:16:55.985Z,140
2019-03-02T11:17:51.805Z,135
2019-03-02T11:18:51.307Z,135
2019-03-02T11:19:54.415Z,135
2019-03-02T11:20:52.025Z,130
2019-03-02T11:21:51.824Z,130
2019-03-02T11:22:51.785Z,130
2019-03-02T11:23:54.604Z,130
2019-03-02T11:24:51.770Z,130
2019-03-02T11:25:51.770Z,130
2019-03-02T11:26:51.775Z,135
2019-03-02T11:27:57.198Z,140
2019-03-02T11:28:53.977Z,145
2019-03-02T11:30:00.038Z,145
2019-03-02T11:30:51.761Z,150
2019-03-02T11:31:56.866Z,150
2019-03-02T11:32:55.978Z,155
2019-03-02T11:33:53.565Z,160
2019-03-02T11:34:52.007Z,170
2019-03-02T11:35:51.996Z,175
2019-03-02T11:36:56.691Z,180
2019-03-02T11:37:53.897Z,185
2019-03-02T11:38:51.979Z,190
2019-03-02T11:39:57.354Z,195
2019-03-02T11:40:51.776Z,195
2019-03-02T11:41:51.739Z,200
2019-03-02T11:42:52.324Z,205
2019-03-02T11:43:55.632Z,210
2019-03-02T11:44:52.345Z,220
2019-03-02T11:45:51.457Z,220
2019-03-02T11:46:51.752Z,225
2019-03-02T11:47:54.080Z,230
2019-03-02T11:49:02.860Z,240
2019-03-02T11:49:51.688Z,240
2019-03-02T11:50:55.770Z,245
2019-03-02T11:51:51.718Z,245
2019-03-02T11:52:52.974Z,245
2019-03-02T11:53:54.398Z,250
2019-03-02T11:54:51.663Z,250
2019-03-02T11:55:51.689Z,250
2019-03-02T11:56:54.616Z,250
2019-03-02T11:57:53.789Z,245
2019-03-02T11:58:51.906Z,250
2019-03-02T11:59:54.786Z,250
2019-03-02T12:00:54.115Z,250
2019-03-02T12:01:51.430Z,250
2019-03-02T12:02:51.403Z,250
2019-03-02T12:03:51.658Z,255
2019-03-02T12:04:54.460Z,255
2019-03-02T12:05:51.154Z,255
2019-03-02T12:06:51.422Z,260
2019-03-02T12:07:55.120Z,250
2019-03-02T12:08:54.807Z,245
2019-03-02T12:09:51.644Z,245
2019-03-02T12:10:51.885Z,235
2019-03-02T12:11:55.879Z,235
2019-03-02T12:12:57.491Z,235
2019-03-02T12:13:51.876Z,235
2019-03-02T12:14:53.270Z,235
2019-03-02T12:15:55.009Z,235
2019-03-02T12:16:51.409Z,245
2019-03-02T12:17:51.369Z,240
2019-03-02T12:18:54.081Z,230
2019-03-02T12:19:51.865Z,215
2019-03-02T12:20:54.763Z,200
2019-03-02T12:21:54.026Z,205
2019-03-02T12:22:51.369Z,205
2019-03-02T12:23:51.372Z,205
2019-03-02T12:24:54.648Z,210
2019-03-02T12:25:50.878Z,225
2019-03-02T12:26:53.343Z,230
2019-03-02T12:27:54.944Z,230
2019-03-02T12:28:51.613Z,215
2019-03-02T12:29:56.676Z,190
2019-03-02T12:30:51.606Z,180
2019-03-02T12:31:51.663Z,175
2019-03-02T12:32:53.536Z,185
2019-03-02T12:33:53.975Z,195
2019-03-02T12:34:51.679Z,180
2019-03-02T12:35:51.845Z,160
2019-03-02T12:36:55.717Z,150
2019-03-02T12:37:51.105Z,160
2019-03-02T12:38:55.039Z,175
2019-03-02T12:39:51.835Z,180
2019-03-02T12:40:51.373Z,175
2019-03-02T12:41:55.158Z,160
2019-03-02T12:42:51.839Z,145
2019-03-02T12:43:53.475Z,135
2019-03-02T12:44:54.141Z,135
2019-03-02T12:45:51.818Z,125
2019-03-02T12:47:01.847Z,110
2019-03-02T12:47:51.068Z,105
2019-03-02T12:48:51.327Z,105
2019-03-02T12:49:54.012Z,105
2019-03-02T12:50:54.944Z,110
2019-03-02T12:51:53.980Z,120
2019-03-02T12:52:56.392Z,120
2019-03-02T12:53:51.065Z,120
2019-03-02T12:54:53.077Z,110
2019-03-02T12:55:53.071Z,110
2019-03-02T12:56:51.578Z,110
2019-03-02T12:57:54.858Z,110
2019-03-02T12:58:54.916Z,115
2019-03-02T12:59:51.308Z,115
2019-03-02T13:00:53.496Z,115
2019-03-02T13:01:52.399Z,110
2019-03-02T13:02:57.082Z,110
2019-03-02T13:03:51.521Z,110
2019-03-02T13:04:55.969Z,115
2019-03-02T13:05:53.779Z,125
2019-03-02T13:06:53.309Z,130
2019-03-02T13:07:57.152Z,140
2019-03-02T13:08:53.199Z,150
2019-03-02T13:09:51.014Z,155
2019-03-02T13:10:55.955Z,170
2019-03-02T13:11:51.526Z,180
2019-03-02T13:12:54.793Z,200
2019-03-02T13:13:52.750Z,205
2019-03-02T13:14:51.252Z,210
2019-03-02T13:15:56.835Z,215
2019-03-02T13:16:55.817Z,220
2019-03-02T13:17:51.260Z,230
2019-03-02T13:18:55.399Z,235
2019-03-02T13:19:51.504Z,230
2019-03-02T13:20:52.200Z,225
2019-03-02T13:21:56.477Z,215
2019-03-02T13:22:53.188Z,205
2019-03-02T13:23:51.813Z,205
2019-03-02T13:24:53.640Z,200
2019-03-02T13:25:51.013Z,205
2019-03-02T13:26:56.137Z,200
2019-03-02T13:27:51.236Z,195
2019-03-02T13:28:53.258Z,185
2019-03-02T13:29:55.848Z,185
2019-03-02T13:30:51.922Z,170
2019-03-02T13:31:53.143Z,160
2019-03-02T13:32:55.929Z,155
2019-03-02T13:33:50.968Z,150
2019-03-02T13:34:54.642Z,150
2019-03-02T13:36:04.595Z,155
2019-03-02T13:36:53.328Z,165
2019-03-02T13:37:52.939Z,180
2019-03-02T13:38:52.285Z,185
2019-03-02T13:40:00.600Z,195
2019-03-02T13:40:51.228Z,190
2019-03-02T13:41:53.715Z,190
2019-03-02T13:43:04.231Z,185
2019-03-02T13:43:51.708Z,180
2019-03-02T13:44:52.339Z,175
2019-03-02T13:46:00.037Z,170
2019-03-02T13:46:53.663Z,165
2019-03-02T13:47:56.041Z,155
2019-03-02T13:48:52.732Z,150
2019-03-02T13:49:51.716Z,150
2019-03-02T13:50:58.481Z,145
2019-03-02T13:51:51.441Z,150
2019-03-02T13:52:53.565Z,145
2019-03-02T13:53:53.112Z,145
2019-03-02T13:54:51.664Z,145
2019-03-02T13:55:54.384Z,145
2019-03-02T13:56:51.165Z,145
2019-03-02T13:57:52.707Z,145
2019-03-02T13:58:54.817Z,145
2019-03-02T13:59:51.663Z,145
2019-03-02T14:00:56.155Z,145
2019-03-02T14:01:51.417Z,145
2019-03-02T14:02:51.416Z,150
2019-03-02T14:03:55.841Z,160
2019-03-02T14:04:51.802Z,170
2019-03-02T14:05:52.011Z,180
2019-03-02T14:06:54.462Z,180
2019-03-02T14:07:51.226Z,180
2019-03-02T14:08:52.683Z,185
2019-03-02T14:09:51.444Z,185
2019-03-02T14:10:51.204Z,185
2019-03-02T14:11:50.884Z,190
2019-03-02T14:12:54.209Z,190
2019-03-02T14:13:51.362Z,195
2019-03-02T14:14:54.219Z,180
2019-03-02T14:15:55.259Z,175
2019-03-02T14:16:57.600Z,170
2019-03-02T14:17:56.163Z,160
2019-03-02T14:18:50.868Z,155